CES6625 ZSHC-ZBYN
Flight info
| Callsign | CES6625 |
|---|---|
| Flight time | 1h 44m |
| Altitude | 30100 |
| Route | NIVIK W135 DOGVI W545 VEMEX W163 HFE B208 ANPIG |
| Aircraft | A321/M-SDE3FGHIRWY/LB1 |
Departure
| Time | 2026-04-25 03:37 |
|---|---|
| Airport | Hangzhou Xiaoshan International Airport (ZSHC) |
Arrival
| Time | 2026-04-25 05:21 |
|---|---|
| Airport | Taiyuan Wusu International Airport (ZBYN) |
| Time | Latitude | Longitude | Altitude | Speed | Heading |
|---|---|---|---|---|---|
| 2026-04-25 03:22 | 30.24334 | 120.43066 | 33 ft | 0 kts | 152° |
| 2026-04-25 03:28 | 30.24340 | 120.43062 | 32 ft | 4 kts | 150° |
| 2026-04-25 03:28 | 30.24363 | 120.43046 | 30 ft | 4 kts | 155° |
| 2026-04-25 03:28 | 30.24383 | 120.43039 | 31 ft | 4 kts | 167° |
| 2026-04-25 03:29 | 30.24409 | 120.43032 | 30 ft | 4 kts | 171° |
| 2026-04-25 03:29 | 30.24420 | 120.43030 | 31 ft | 0 kts | 175° |
| 2026-04-25 03:30 | 30.24419 | 120.43030 | 31 ft | 0 kts | 175° |
| 2026-04-25 03:31 | 30.24406 | 120.43024 | 31 ft | 3 kts | 218° |
| 2026-04-25 03:31 | 30.24393 | 120.42987 | 32 ft | 7 kts | 247° |
| 2026-04-25 03:31 | 30.24369 | 120.42929 | 32 ft | 10 kts | 242° |
| 2026-04-25 03:31 | 30.24336 | 120.42836 | 32 ft | 14 kts | 274° |
| 2026-04-25 03:32 | 30.24412 | 120.42765 | 32 ft | 16 kts | 333° |
| 2026-04-25 03:32 | 30.24441 | 120.42665 | 30 ft | 15 kts | 246° |
| 2026-04-25 03:32 | 30.24390 | 120.42553 | 31 ft | 16 kts | 242° |
| 2026-04-25 03:32 | 30.24338 | 120.42432 | 32 ft | 18 kts | 243° |
| 2026-04-25 03:33 | 30.24277 | 120.42296 | 32 ft | 20 kts | 243° |
| 2026-04-25 03:33 | 30.24210 | 120.42146 | 32 ft | 21 kts | 243° |
| 2026-04-25 03:33 | 30.24143 | 120.41992 | 32 ft | 22 kts | 243° |
| 2026-04-25 03:33 | 30.24075 | 120.41836 | 32 ft | 22 kts | 243° |
| 2026-04-25 03:34 | 30.24006 | 120.41679 | 32 ft | 22 kts | 241° |
| 2026-04-25 03:34 | 30.23933 | 120.41520 | 32 ft | 22 kts | 243° |
| 2026-04-25 03:34 | 30.23862 | 120.41359 | 32 ft | 23 kts | 243° |
| 2026-04-25 03:34 | 30.23791 | 120.41198 | 32 ft | 22 kts | 243° |
| 2026-04-25 03:35 | 30.23725 | 120.41048 | 32 ft | 19 kts | 243° |
| 2026-04-25 03:35 | 30.23698 | 120.40920 | 33 ft | 14 kts | 306° |
| 2026-04-25 03:35 | 30.23784 | 120.40868 | 34 ft | 14 kts | 335° |
| 2026-04-25 03:35 | 30.23850 | 120.40892 | 34 ft | 11 kts | 66° |
| 2026-04-25 03:36 | 30.23905 | 120.41021 | 34 ft | 41 kts | 62° |
| 2026-04-25 03:36 | 30.24147 | 120.41568 | 32 ft | 109 kts | 63° |
| 2026-04-25 03:36 | 30.24580 | 120.42548 | 30 ft | 162 kts | 64° |
| 2026-04-25 03:36 | 30.25121 | 120.43791 | 414 ft | 178 kts | 61° |
| 2026-04-25 03:37 | 30.25697 | 120.45074 | 1090 ft | 179 kts | 63° |
| 2026-04-25 03:37 | 30.26280 | 120.46381 | 1521 ft | 191 kts | 63° |
| 2026-04-25 03:37 | 30.26915 | 120.47809 | 1818 ft | 206 kts | 63° |
| 2026-04-25 03:37 | 30.27576 | 120.49296 | 2326 ft | 209 kts | 63° |
| 2026-04-25 03:38 | 30.28257 | 120.50797 | 2816 ft | 214 kts | 59° |
| 2026-04-25 03:38 | 30.29375 | 120.52027 | 2955 ft | 237 kts | 26° |
| 2026-04-25 03:38 | 30.31050 | 120.52323 | 3180 ft | 257 kts | 348° |
| 2026-04-25 03:38 | 30.32624 | 120.51341 | 3735 ft | 263 kts | 311° |
| 2026-04-25 03:39 | 30.33614 | 120.49550 | 4431 ft | 265 kts | 297° |
| 2026-04-25 03:39 | 30.34450 | 120.47644 | 5188 ft | 266 kts | 296° |
| 2026-04-25 03:39 | 30.35244 | 120.45735 | 5883 ft | 268 kts | 295° |
| 2026-04-25 03:39 | 30.36060 | 120.43755 | 6583 ft | 270 kts | 295° |
| 2026-04-25 03:40 | 30.36876 | 120.41783 | 7221 ft | 273 kts | 295° |
| 2026-04-25 03:40 | 30.37706 | 120.39793 | 7867 ft | 276 kts | 295° |
| 2026-04-25 03:40 | 30.38550 | 120.37787 | 8519 ft | 278 kts | 295° |
| 2026-04-25 03:40 | 30.39394 | 120.35784 | 9162 ft | 281 kts | 295° |
| 2026-04-25 03:41 | 30.40256 | 120.33739 | 9824 ft | 284 kts | 295° |
| 2026-04-25 03:41 | 30.41137 | 120.31657 | 10238 ft | 296 kts | 295° |
| 2026-04-25 03:41 | 30.42076 | 120.29441 | 10365 ft | 317 kts | 295° |
| 2026-04-25 03:41 | 30.43076 | 120.27079 | 10487 ft | 336 kts | 295° |
| 2026-04-25 03:42 | 30.44132 | 120.24582 | 10608 ft | 354 kts | 295° |
| 2026-04-25 03:42 | 30.45241 | 120.21961 | 10733 ft | 370 kts | 295° |
| 2026-04-25 03:42 | 30.46397 | 120.19231 | 10861 ft | 384 kts | 295° |
| 2026-04-25 03:42 | 30.47712 | 120.16493 | 11171 ft | 393 kts | 303° |
| 2026-04-25 03:43 | 30.49442 | 120.14030 | 11629 ft | 397 kts | 313° |
| 2026-04-25 03:43 | 30.51545 | 120.11943 | 12111 ft | 400 kts | 322° |
| 2026-04-25 03:43 | 30.53810 | 120.10038 | 12604 ft | 403 kts | 323° |
| 2026-04-25 03:43 | 30.56085 | 120.08118 | 13093 ft | 406 kts | 322° |
| 2026-04-25 03:44 | 30.58371 | 120.06185 | 13587 ft | 408 kts | 322° |
| 2026-04-25 03:44 | 30.60675 | 120.04237 | 14062 ft | 411 kts | 322° |
| 2026-04-25 03:44 | 30.62992 | 120.02274 | 14477 ft | 413 kts | 322° |
| 2026-04-25 03:44 | 30.65321 | 120.00298 | 14896 ft | 415 kts | 322° |
| 2026-04-25 03:45 | 30.67657 | 119.98313 | 15333 ft | 417 kts | 322° |
| 2026-04-25 03:45 | 30.70007 | 119.96314 | 15752 ft | 420 kts | 322° |
| 2026-04-25 03:45 | 30.72368 | 119.94307 | 16170 ft | 422 kts | 322° |
| 2026-04-25 03:45 | 30.74745 | 119.92288 | 16583 ft | 424 kts | 322° |
| 2026-04-25 03:46 | 30.77133 | 119.90258 | 16994 ft | 426 kts | 322° |
| 2026-04-25 03:46 | 30.79529 | 119.88214 | 17403 ft | 429 kts | 321° |
| 2026-04-25 03:46 | 30.81936 | 119.86151 | 17813 ft | 431 kts | 321° |
| 2026-04-25 03:46 | 30.84357 | 119.84071 | 18208 ft | 433 kts | 321° |
| 2026-04-25 03:47 | 30.86787 | 119.81983 | 18562 ft | 435 kts | 321° |
| 2026-04-25 03:47 | 30.89230 | 119.79884 | 18891 ft | 437 kts | 321° |
| 2026-04-25 03:47 | 30.91679 | 119.77775 | 19229 ft | 439 kts | 321° |
| 2026-04-25 03:47 | 30.93344 | 119.76341 | 19453 ft | 441 kts | 321° |
| 2026-04-25 03:48 | 30.95812 | 119.74215 | 19792 ft | 443 kts | 321° |
| 2026-04-25 03:48 | 30.98295 | 119.72075 | 20137 ft | 445 kts | 321° |
| 2026-04-25 03:48 | 31.00790 | 119.69922 | 20466 ft | 447 kts | 321° |
| 2026-04-25 03:48 | 31.03260 | 119.67790 | 20784 ft | 449 kts | 321° |
| 2026-04-25 03:49 | 31.05776 | 119.65618 | 21118 ft | 450 kts | 321° |
| 2026-04-25 03:49 | 31.08297 | 119.63437 | 21463 ft | 452 kts | 321° |
| 2026-04-25 03:49 | 31.10832 | 119.61241 | 21780 ft | 454 kts | 321° |
| 2026-04-25 03:49 | 31.13384 | 119.59031 | 22112 ft | 456 kts | 321° |
| 2026-04-25 03:50 | 31.15940 | 119.56820 | 22433 ft | 458 kts | 321° |
| 2026-04-25 03:50 | 31.18503 | 119.54603 | 22726 ft | 460 kts | 321° |
| 2026-04-25 03:50 | 31.21074 | 119.52375 | 23005 ft | 462 kts | 321° |
| 2026-04-25 03:50 | 31.23658 | 119.50133 | 23284 ft | 463 kts | 321° |
| 2026-04-25 03:51 | 31.26254 | 119.47880 | 23532 ft | 465 kts | 321° |
| 2026-04-25 03:51 | 31.28853 | 119.45625 | 23767 ft | 466 kts | 321° |
| 2026-04-25 03:51 | 31.31457 | 119.43365 | 23958 ft | 467 kts | 321° |
| 2026-04-25 03:51 | 31.34071 | 119.41096 | 24228 ft | 466 kts | 321° |
| 2026-04-25 03:52 | 31.36670 | 119.38834 | 24504 ft | 466 kts | 321° |
| 2026-04-25 03:52 | 31.39268 | 119.36569 | 24777 ft | 465 kts | 321° |
| 2026-04-25 03:52 | 31.41863 | 119.34305 | 25050 ft | 464 kts | 321° |
| 2026-04-25 03:52 | 31.44450 | 119.32045 | 25323 ft | 464 kts | 321° |
| 2026-04-25 03:53 | 31.47033 | 119.29785 | 25601 ft | 463 kts | 321° |
| 2026-04-25 03:53 | 31.49612 | 119.27532 | 25879 ft | 463 kts | 321° |
| 2026-04-25 03:53 | 31.52193 | 119.25278 | 26165 ft | 462 kts | 321° |
| 2026-04-25 03:53 | 31.54768 | 119.23022 | 26460 ft | 461 kts | 321° |
| 2026-04-25 03:54 | 31.57335 | 119.20764 | 26760 ft | 461 kts | 321° |
| 2026-04-25 03:54 | 31.59896 | 119.18500 | 27042 ft | 460 kts | 321° |
| 2026-04-25 03:54 | 31.62444 | 119.16235 | 27343 ft | 459 kts | 321° |
| 2026-04-25 03:54 | 31.64979 | 119.13958 | 27632 ft | 459 kts | 320° |
| 2026-04-25 03:55 | 31.67446 | 119.11591 | 27940 ft | 457 kts | 317° |
| 2026-04-25 03:55 | 31.69843 | 119.09144 | 28238 ft | 456 kts | 316° |
| 2026-04-25 03:55 | 31.72204 | 119.06658 | 28539 ft | 455 kts | 316° |
| 2026-04-25 03:55 | 31.74554 | 119.04165 | 28839 ft | 455 kts | 316° |
| 2026-04-25 03:56 | 31.76905 | 119.01686 | 29136 ft | 454 kts | 316° |
| 2026-04-25 03:56 | 31.79165 | 118.99108 | 29426 ft | 452 kts | 309° |
| 2026-04-25 03:56 | 31.81062 | 118.96178 | 29711 ft | 449 kts | 301° |
| 2026-04-25 03:56 | 31.82528 | 118.92945 | 30001 ft | 447 kts | 291° |
| 2026-04-25 03:57 | 31.83538 | 118.89491 | 30200 ft | 446 kts | 283° |
| 2026-04-25 03:57 | 31.84092 | 118.85902 | 30237 ft | 448 kts | 275° |
| 2026-04-25 03:57 | 31.83884 | 118.78592 | 30238 ft | 449 kts | 264° |
| 2026-04-25 03:58 | 31.83232 | 118.71289 | 30234 ft | 450 kts | 264° |
| 2026-04-25 03:58 | 31.82584 | 118.63977 | 30230 ft | 450 kts | 264° |
| 2026-04-25 03:59 | 31.81932 | 118.56660 | 30224 ft | 450 kts | 264° |
| 2026-04-25 03:59 | 31.81267 | 118.49334 | 30218 ft | 451 kts | 264° |
| 2026-04-25 04:00 | 31.80595 | 118.42012 | 30223 ft | 451 kts | 264° |
| 2026-04-25 04:00 | 31.79923 | 118.34683 | 30242 ft | 450 kts | 264° |
| 2026-04-25 04:01 | 31.79324 | 118.27353 | 30223 ft | 451 kts | 266° |
| 2026-04-25 04:01 | 31.79146 | 118.19984 | 30219 ft | 451 kts | 269° |
| 2026-04-25 04:02 | 31.79125 | 118.12618 | 30219 ft | 451 kts | 269° |
| 2026-04-25 04:02 | 31.79048 | 118.05237 | 30218 ft | 451 kts | 269° |
| 2026-04-25 04:03 | 31.78916 | 117.97883 | 30223 ft | 451 kts | 268° |
| 2026-04-25 04:03 | 31.78780 | 117.90514 | 30226 ft | 451 kts | 269° |
| 2026-04-25 04:04 | 31.78650 | 117.83141 | 30234 ft | 451 kts | 269° |
| 2026-04-25 04:04 | 31.78518 | 117.75780 | 30234 ft | 451 kts | 269° |
| 2026-04-25 04:05 | 31.78378 | 117.68415 | 30235 ft | 450 kts | 269° |
| 2026-04-25 04:05 | 31.78226 | 117.61063 | 30233 ft | 450 kts | 268° |
| 2026-04-25 04:06 | 31.78061 | 117.53710 | 30237 ft | 450 kts | 268° |
| 2026-04-25 04:06 | 31.77891 | 117.46356 | 30240 ft | 449 kts | 268° |
| 2026-04-25 04:07 | 31.77713 | 117.39017 | 30242 ft | 449 kts | 268° |
| 2026-04-25 04:07 | 31.78438 | 117.31765 | 30236 ft | 449 kts | 286° |
| 2026-04-25 04:08 | 31.81187 | 117.25177 | 30241 ft | 452 kts | 305° |
| 2026-04-25 04:08 | 31.85228 | 117.19491 | 30229 ft | 453 kts | 308° |
| 2026-04-25 04:09 | 31.89309 | 117.13840 | 30228 ft | 453 kts | 308° |
| 2026-04-25 04:09 | 31.93388 | 117.08189 | 30225 ft | 453 kts | 308° |
| 2026-04-25 04:10 | 31.97468 | 117.02524 | 30228 ft | 453 kts | 308° |
| 2026-04-25 04:10 | 32.01519 | 116.96891 | 30226 ft | 453 kts | 308° |
| 2026-04-25 04:11 | 32.07667 | 116.88363 | 30225 ft | 453 kts | 309° |
| 2026-04-25 04:12 | 32.11714 | 116.82732 | 30227 ft | 453 kts | 309° |
| 2026-04-25 04:12 | 32.15788 | 116.77064 | 30225 ft | 453 kts | 309° |
| 2026-04-25 04:13 | 32.19860 | 116.71395 | 30226 ft | 452 kts | 308° |
| 2026-04-25 04:13 | 32.23821 | 116.65620 | 30221 ft | 452 kts | 307° |
| 2026-04-25 04:14 | 32.27711 | 116.59784 | 30219 ft | 452 kts | 307° |
| 2026-04-25 04:14 | 32.31613 | 116.53954 | 30218 ft | 452 kts | 307° |
| 2026-04-25 04:15 | 32.35536 | 116.48150 | 30216 ft | 452 kts | 307° |
| 2026-04-25 04:15 | 32.39507 | 116.42386 | 30217 ft | 452 kts | 308° |
| 2026-04-25 04:16 | 32.43559 | 116.36696 | 30213 ft | 452 kts | 309° |
| 2026-04-25 04:16 | 32.47615 | 116.31007 | 30211 ft | 452 kts | 308° |
| 2026-04-25 04:17 | 32.51642 | 116.25293 | 30207 ft | 452 kts | 308° |
| 2026-04-25 04:17 | 32.55653 | 116.19553 | 30212 ft | 452 kts | 308° |
| 2026-04-25 04:18 | 32.59677 | 116.13816 | 30209 ft | 452 kts | 309° |
| 2026-04-25 04:18 | 32.63713 | 116.08159 | 30213 ft | 452 kts | 309° |
| 2026-04-25 04:19 | 32.67782 | 116.02458 | 30216 ft | 452 kts | 309° |
| 2026-04-25 04:19 | 32.71831 | 115.96745 | 30218 ft | 452 kts | 308° |
| 2026-04-25 04:20 | 32.75875 | 115.91024 | 30216 ft | 452 kts | 308° |
| 2026-04-25 04:20 | 32.79913 | 115.85303 | 30214 ft | 451 kts | 308° |
| 2026-04-25 04:21 | 32.83948 | 115.79576 | 30227 ft | 451 kts | 308° |
| 2026-04-25 04:21 | 32.87978 | 115.73854 | 30219 ft | 451 kts | 308° |
| 2026-04-25 04:22 | 32.92024 | 115.68209 | 30225 ft | 452 kts | 309° |
| 2026-04-25 04:22 | 32.96177 | 115.62581 | 30217 ft | 451 kts | 309° |
| 2026-04-25 04:23 | 33.00317 | 115.56967 | 30214 ft | 450 kts | 309° |
| 2026-04-25 04:23 | 33.04434 | 115.51341 | 30214 ft | 450 kts | 309° |
| 2026-04-25 04:24 | 33.08538 | 115.45705 | 30213 ft | 450 kts | 309° |
| 2026-04-25 04:24 | 33.12632 | 115.40059 | 30211 ft | 450 kts | 309° |
| 2026-04-25 04:25 | 33.16726 | 115.34420 | 30208 ft | 449 kts | 309° |
| 2026-04-25 04:25 | 33.20815 | 115.28780 | 30207 ft | 449 kts | 309° |
| 2026-04-25 04:26 | 33.24893 | 115.23140 | 30209 ft | 448 kts | 308° |
| 2026-04-25 04:26 | 33.28966 | 115.17504 | 30208 ft | 447 kts | 308° |
| 2026-04-25 04:27 | 33.33008 | 115.11916 | 30207 ft | 447 kts | 308° |
| 2026-04-25 04:27 | 33.37059 | 115.06294 | 30210 ft | 446 kts | 308° |
| 2026-04-25 04:28 | 33.41102 | 115.00665 | 30179 ft | 446 kts | 311° |
| 2026-04-25 04:28 | 33.45162 | 114.95006 | 30160 ft | 450 kts | 311° |
| 2026-04-25 04:29 | 33.49249 | 114.89313 | 30154 ft | 452 kts | 311° |
| 2026-04-25 04:29 | 33.52658 | 114.84554 | 30163 ft | 453 kts | 311° |
| 2026-04-25 04:30 | 33.56762 | 114.78812 | 30168 ft | 454 kts | 311° |
| 2026-04-25 04:30 | 33.60874 | 114.73068 | 30182 ft | 454 kts | 312° |
| 2026-04-25 04:31 | 33.65057 | 114.67393 | 30193 ft | 454 kts | 313° |
| 2026-04-25 04:31 | 33.69757 | 114.62397 | 30194 ft | 450 kts | 323° |
| 2026-04-25 04:32 | 33.74666 | 114.57731 | 30206 ft | 450 kts | 323° |
| 2026-04-25 04:32 | 33.79547 | 114.53031 | 30196 ft | 448 kts | 323° |
| 2026-04-25 04:33 | 33.84414 | 114.48352 | 30203 ft | 447 kts | 324° |
| 2026-04-25 04:33 | 33.89307 | 114.43743 | 30192 ft | 446 kts | 324° |
| 2026-04-25 04:34 | 33.94210 | 114.39163 | 30194 ft | 446 kts | 325° |
| 2026-04-25 04:34 | 33.99094 | 114.34568 | 30195 ft | 445 kts | 325° |
| 2026-04-25 04:35 | 34.03960 | 114.29959 | 30196 ft | 444 kts | 325° |
| 2026-04-25 04:35 | 34.08822 | 114.25352 | 30188 ft | 444 kts | 325° |
| 2026-04-25 04:36 | 34.13675 | 114.20748 | 30187 ft | 444 kts | 325° |
| 2026-04-25 04:36 | 34.18526 | 114.16150 | 30189 ft | 443 kts | 325° |
| 2026-04-25 04:37 | 34.23339 | 114.11583 | 30183 ft | 443 kts | 325° |
| 2026-04-25 04:37 | 34.28179 | 114.06972 | 30185 ft | 443 kts | 325° |
| 2026-04-25 04:38 | 34.33010 | 114.02357 | 30187 ft | 442 kts | 325° |
| 2026-04-25 04:38 | 34.37842 | 113.97735 | 30196 ft | 442 kts | 325° |
| 2026-04-25 04:39 | 34.42667 | 113.93122 | 30197 ft | 442 kts | 325° |
| 2026-04-25 04:39 | 34.47483 | 113.88506 | 30198 ft | 441 kts | 325° |
| 2026-04-25 04:40 | 34.52572 | 113.84447 | 30201 ft | 435 kts | 338° |
| 2026-04-25 04:40 | 34.58291 | 113.82207 | 30199 ft | 432 kts | 347° |
| 2026-04-25 04:41 | 34.64083 | 113.80295 | 30194 ft | 432 kts | 347° |
| 2026-04-25 04:41 | 34.69878 | 113.78382 | 30186 ft | 431 kts | 346° |
| 2026-04-25 04:42 | 34.75682 | 113.76462 | 30177 ft | 432 kts | 346° |
| 2026-04-25 04:42 | 34.81476 | 113.74543 | 30171 ft | 431 kts | 346° |
| 2026-04-25 04:43 | 34.87263 | 113.72586 | 30163 ft | 432 kts | 345° |
| 2026-04-25 04:43 | 34.92947 | 113.70211 | 30164 ft | 432 kts | 341° |
| 2026-04-25 04:44 | 34.98536 | 113.67614 | 30161 ft | 432 kts | 341° |
| 2026-04-25 04:44 | 35.04204 | 113.65027 | 30160 ft | 432 kts | 342° |
| 2026-04-25 04:45 | 35.09850 | 113.62533 | 30163 ft | 431 kts | 342° |
| 2026-04-25 04:45 | 35.15471 | 113.60067 | 30166 ft | 431 kts | 342° |
| 2026-04-25 04:46 | 35.21114 | 113.57583 | 30172 ft | 431 kts | 342° |
| 2026-04-25 04:46 | 35.26756 | 113.55081 | 30171 ft | 431 kts | 342° |
| 2026-04-25 04:47 | 35.32392 | 113.52573 | 30175 ft | 430 kts | 342° |
| 2026-04-25 04:47 | 35.38019 | 113.50066 | 30176 ft | 430 kts | 342° |
| 2026-04-25 04:48 | 35.43641 | 113.47562 | 30180 ft | 429 kts | 342° |
| 2026-04-25 04:48 | 35.49255 | 113.45067 | 30177 ft | 429 kts | 342° |
| 2026-04-25 04:49 | 35.54872 | 113.42579 | 30172 ft | 429 kts | 342° |
| 2026-04-25 04:49 | 35.60485 | 113.40096 | 30184 ft | 429 kts | 342° |
| 2026-04-25 04:50 | 35.66130 | 113.37589 | 30181 ft | 428 kts | 342° |
| 2026-04-25 04:50 | 35.71735 | 113.35084 | 30172 ft | 428 kts | 342° |
| 2026-04-25 04:51 | 35.77329 | 113.32582 | 30175 ft | 428 kts | 342° |
| 2026-04-25 04:51 | 35.82925 | 113.30070 | 30177 ft | 428 kts | 342° |
| 2026-04-25 04:52 | 35.88518 | 113.27564 | 30167 ft | 427 kts | 342° |
| 2026-04-25 04:52 | 35.94116 | 113.25073 | 30171 ft | 427 kts | 342° |
| 2026-04-25 04:53 | 35.99710 | 113.22570 | 30166 ft | 427 kts | 342° |
| 2026-04-25 04:53 | 36.05295 | 113.20072 | 30162 ft | 427 kts | 342° |
| 2026-04-25 04:54 | 36.10877 | 113.17572 | 30161 ft | 426 kts | 342° |
| 2026-04-25 04:54 | 36.16450 | 113.15075 | 30160 ft | 426 kts | 342° |
| 2026-04-25 04:55 | 36.22015 | 113.12565 | 30159 ft | 425 kts | 342° |
| 2026-04-25 04:55 | 36.27667 | 113.10473 | 30151 ft | 424 kts | 347° |
| 2026-04-25 04:56 | 36.33379 | 113.08630 | 30148 ft | 423 kts | 347° |
| 2026-04-25 04:56 | 36.39193 | 113.06743 | 29510 ft | 447 kts | 342° |
| 2026-04-25 04:56 | 36.42230 | 113.05745 | 28899 ft | 455 kts | 342° |
| 2026-04-25 04:57 | 36.45307 | 113.04737 | 28291 ft | 459 kts | 342° |
| 2026-04-25 04:57 | 36.48404 | 113.03730 | 27694 ft | 461 kts | 343° |
| 2026-04-25 04:57 | 36.51515 | 113.02720 | 27116 ft | 462 kts | 343° |
| 2026-04-25 04:57 | 36.54628 | 113.01708 | 26553 ft | 464 kts | 343° |
| 2026-04-25 04:58 | 36.57767 | 113.00686 | 25996 ft | 466 kts | 343° |
| 2026-04-25 04:58 | 36.60906 | 112.99664 | 25450 ft | 467 kts | 343° |
| 2026-04-25 04:58 | 36.64049 | 112.98639 | 24915 ft | 468 kts | 343° |
| 2026-04-25 04:58 | 36.67206 | 112.97604 | 24390 ft | 470 kts | 343° |
| 2026-04-25 04:59 | 36.70370 | 112.96567 | 23873 ft | 469 kts | 343° |
| 2026-04-25 04:59 | 36.73520 | 112.95536 | 23313 ft | 466 kts | 343° |
| 2026-04-25 04:59 | 36.76646 | 112.94513 | 22717 ft | 462 kts | 343° |
| 2026-04-25 04:59 | 36.79748 | 112.93494 | 22127 ft | 459 kts | 343° |
| 2026-04-25 05:00 | 36.82822 | 112.92478 | 21549 ft | 455 kts | 343° |
| 2026-04-25 05:00 | 36.85869 | 112.91472 | 20980 ft | 451 kts | 343° |
| 2026-04-25 05:00 | 36.88890 | 112.90475 | 20425 ft | 447 kts | 344° |
| 2026-04-25 05:00 | 36.91887 | 112.89487 | 19874 ft | 444 kts | 344° |
| 2026-04-25 05:01 | 36.94868 | 112.88507 | 19330 ft | 440 kts | 344° |
| 2026-04-25 05:01 | 36.97825 | 112.87534 | 18809 ft | 437 kts | 344° |
| 2026-04-25 05:01 | 37.00747 | 112.86570 | 18288 ft | 434 kts | 344° |
| 2026-04-25 05:01 | 37.03655 | 112.85610 | 17694 ft | 431 kts | 344° |
| 2026-04-25 05:02 | 37.06544 | 112.84655 | 17110 ft | 428 kts | 344° |
| 2026-04-25 05:02 | 37.09418 | 112.83710 | 16537 ft | 425 kts | 344° |
| 2026-04-25 05:02 | 37.12272 | 112.82781 | 15979 ft | 423 kts | 344° |
| 2026-04-25 05:02 | 37.15120 | 112.81857 | 15426 ft | 420 kts | 344° |
| 2026-04-25 05:03 | 37.17939 | 112.80938 | 14878 ft | 416 kts | 344° |
| 2026-04-25 05:03 | 37.20708 | 112.80035 | 14348 ft | 406 kts | 344° |
| 2026-04-25 05:03 | 37.23388 | 112.79046 | 13818 ft | 398 kts | 339° |
| 2026-04-25 05:03 | 37.25900 | 112.77673 | 13237 ft | 390 kts | 331° |
| 2026-04-25 05:04 | 37.28198 | 112.75943 | 12669 ft | 381 kts | 323° |
| 2026-04-25 05:04 | 37.30267 | 112.73909 | 12107 ft | 374 kts | 316° |
| 2026-04-25 05:04 | 37.32126 | 112.71706 | 11842 ft | 360 kts | 314° |
| 2026-04-25 05:04 | 37.33897 | 112.69607 | 11808 ft | 340 kts | 315° |
| 2026-04-25 05:05 | 37.35576 | 112.67629 | 11815 ft | 320 kts | 315° |
| 2026-04-25 05:05 | 37.37162 | 112.65761 | 11819 ft | 303 kts | 314° |
| 2026-04-25 05:05 | 37.38670 | 112.63983 | 11822 ft | 295 kts | 314° |
| 2026-04-25 05:05 | 37.40159 | 112.62219 | 11815 ft | 294 kts | 314° |
| 2026-04-25 05:06 | 37.41648 | 112.60448 | 11796 ft | 293 kts | 314° |
| 2026-04-25 05:06 | 37.42624 | 112.59285 | 11565 ft | 292 kts | 314° |
| 2026-04-25 05:06 | 37.44590 | 112.56941 | 11033 ft | 291 kts | 314° |
| 2026-04-25 05:06 | 37.45563 | 112.55782 | 10780 ft | 290 kts | 314° |
| 2026-04-25 05:07 | 37.47022 | 112.54043 | 10411 ft | 288 kts | 314° |
| 2026-04-25 05:07 | 37.48474 | 112.52310 | 10065 ft | 287 kts | 314° |
| 2026-04-25 05:07 | 37.49916 | 112.50590 | 9810 ft | 283 kts | 314° |
| 2026-04-25 05:07 | 37.51353 | 112.48873 | 9797 ft | 286 kts | 313° |
| 2026-04-25 05:08 | 37.52800 | 112.47144 | 9793 ft | 287 kts | 314° |
| 2026-04-25 05:08 | 37.54295 | 112.45464 | 9800 ft | 288 kts | 319° |
| 2026-04-25 05:08 | 37.55947 | 112.44015 | 9792 ft | 290 kts | 326° |
| 2026-04-25 05:08 | 37.57721 | 112.42789 | 9785 ft | 291 kts | 329° |
| 2026-04-25 05:09 | 37.59513 | 112.41586 | 9781 ft | 291 kts | 329° |
| 2026-04-25 05:09 | 37.61302 | 112.40374 | 9787 ft | 291 kts | 329° |
| 2026-04-25 05:09 | 37.63078 | 112.39168 | 9779 ft | 285 kts | 329° |
| 2026-04-25 05:09 | 37.64785 | 112.38010 | 9689 ft | 274 kts | 328° |
| 2026-04-25 05:10 | 37.66429 | 112.36896 | 9568 ft | 260 kts | 329° |
| 2026-04-25 05:10 | 37.67977 | 112.35846 | 9454 ft | 247 kts | 328° |
| 2026-04-25 05:10 | 37.69462 | 112.34839 | 9314 ft | 238 kts | 328° |
| 2026-04-25 05:10 | 37.70886 | 112.33872 | 9105 ft | 230 kts | 328° |
| 2026-04-25 05:11 | 37.72288 | 112.32919 | 8799 ft | 227 kts | 328° |
| 2026-04-25 05:11 | 37.73676 | 112.31974 | 8467 ft | 226 kts | 328° |
| 2026-04-25 05:11 | 37.75060 | 112.31028 | 8258 ft | 225 kts | 328° |
| 2026-04-25 05:12 | 37.77746 | 112.29199 | 7944 ft | 209 kts | 327° |
| 2026-04-25 05:12 | 37.79004 | 112.28344 | 7799 ft | 203 kts | 328° |
| 2026-04-25 05:12 | 37.80240 | 112.27500 | 7625 ft | 201 kts | 328° |
| 2026-04-25 05:12 | 37.81481 | 112.26655 | 7391 ft | 202 kts | 327° |
| 2026-04-25 05:13 | 37.82725 | 112.25830 | 7131 ft | 202 kts | 333° |
| 2026-04-25 05:13 | 37.84102 | 112.25411 | 6927 ft | 205 kts | 355° |
| 2026-04-25 05:13 | 37.85525 | 112.25612 | 6890 ft | 211 kts | 15° |
| 2026-04-25 05:13 | 37.86840 | 112.26421 | 6878 ft | 212 kts | 36° |
| 2026-04-25 05:14 | 37.87868 | 112.27767 | 6870 ft | 213 kts | 57° |
| 2026-04-25 05:14 | 37.88592 | 112.29420 | 6873 ft | 215 kts | 60° |
| 2026-04-25 05:14 | 37.89311 | 112.31077 | 6870 ft | 215 kts | 60° |
| 2026-04-25 05:15 | 37.90252 | 112.34639 | 6889 ft | 216 kts | 92° |
| 2026-04-25 05:15 | 37.90037 | 112.36525 | 6872 ft | 213 kts | 110° |
| 2026-04-25 05:15 | 37.89381 | 112.38188 | 6853 ft | 210 kts | 129° |
| 2026-04-25 05:15 | 37.88493 | 112.39681 | 6690 ft | 213 kts | 131° |
| 2026-04-25 05:16 | 37.87610 | 112.41169 | 6434 ft | 210 kts | 129° |
| 2026-04-25 05:16 | 37.86729 | 112.42650 | 6177 ft | 211 kts | 130° |
| 2026-04-25 05:16 | 37.85852 | 112.44126 | 5895 ft | 208 kts | 130° |
| 2026-04-25 05:16 | 37.85010 | 112.45543 | 5636 ft | 196 kts | 130° |
| 2026-04-25 05:17 | 37.84211 | 112.46885 | 5368 ft | 184 kts | 130° |
| 2026-04-25 05:17 | 37.83477 | 112.48122 | 5135 ft | 170 kts | 131° |
| 2026-04-25 05:17 | 37.82782 | 112.49286 | 4923 ft | 162 kts | 129° |
| 2026-04-25 05:17 | 37.82108 | 112.50417 | 4724 ft | 160 kts | 132° |
| 2026-04-25 05:18 | 37.81444 | 112.51532 | 4508 ft | 159 kts | 130° |
| 2026-04-25 05:18 | 37.80781 | 112.52646 | 4306 ft | 158 kts | 131° |
| 2026-04-25 05:18 | 37.80121 | 112.53753 | 4082 ft | 156 kts | 131° |
| 2026-04-25 05:18 | 37.79462 | 112.54857 | 3875 ft | 157 kts | 130° |
| 2026-04-25 05:19 | 37.78803 | 112.55960 | 3641 ft | 157 kts | 130° |
| 2026-04-25 05:19 | 37.78144 | 112.57065 | 3440 ft | 157 kts | 130° |
| 2026-04-25 05:19 | 37.77490 | 112.58159 | 3188 ft | 155 kts | 129° |
| 2026-04-25 05:19 | 37.76846 | 112.59245 | 2992 ft | 154 kts | 128° |
| 2026-04-25 05:20 | 37.76206 | 112.60320 | 2796 ft | 153 kts | 128° |
| 2026-04-25 05:20 | 37.75571 | 112.61385 | 2630 ft | 152 kts | 129° |
| 2026-04-25 05:20 | 37.74955 | 112.62406 | 2566 ft | 130 kts | 127° |
| 2026-04-25 05:20 | 37.74512 | 112.63141 | 2566 ft | 76 kts | 127° |
| 2026-04-25 05:21 | 37.74309 | 112.63484 | 2565 ft | 26 kts | 126° |
| 2026-04-25 05:21 | 37.74240 | 112.63684 | 2564 ft | 21 kts | 101° |
| 2026-04-25 05:21 | 37.74239 | 112.63857 | 2562 ft | 18 kts | 57° |
| 2026-04-25 05:21 | 37.74328 | 112.63803 | 2563 ft | 18 kts | 304° |
| 2026-04-25 05:22 | 37.74407 | 112.63663 | 2565 ft | 21 kts | 306° |
| 2026-04-25 05:22 | 37.74502 | 112.63508 | 2565 ft | 23 kts | 309° |
| 2026-04-25 05:22 | 37.74602 | 112.63345 | 2564 ft | 24 kts | 305° |
| 2026-04-25 05:22 | 37.74695 | 112.63186 | 2566 ft | 21 kts | 307° |
| 2026-04-25 05:23 | 37.74782 | 112.63037 | 2566 ft | 21 kts | 308° |
| 2026-04-25 05:23 | 37.74872 | 112.62890 | 2563 ft | 21 kts | 308° |
| 2026-04-25 05:23 | 37.74959 | 112.62786 | 2565 ft | 12 kts | 6° |
| 2026-04-25 05:23 | 37.75028 | 112.62853 | 2565 ft | 13 kts | 38° |
| 2026-04-25 05:24 | 37.75112 | 112.62901 | 2565 ft | 14 kts | 2° |
| 2026-04-25 05:24 | 37.75117 | 112.62901 | 2565 ft | 0 kts | 2° |